createdAt,value
2018-07-03T02:12:57.134Z,95.53
2018-07-03T02:15:31.734Z,96.27
2018-07-03T02:18:05.380Z,91.73
2018-07-03T02:20:38.107Z,91.47
2018-07-03T02:26:17.753Z,95.13
2018-07-03T02:28:49.641Z,98.27
2018-07-03T02:31:21.766Z,101.80
2018-07-03T02:33:54.091Z,88.53
2018-07-03T02:36:26.102Z,90.57
2018-07-03T02:38:57.873Z,84.07
2018-07-03T02:41:29.826Z,90.43
2018-07-03T02:44:01.542Z,113.20
2018-07-03T02:46:33.397Z,100.03
2018-07-03T02:49:05.255Z,94.43
2018-07-03T02:51:36.449Z,120.97
2018-07-03T02:54:09.713Z,102.17
2018-07-03T02:56:41.784Z,126.13
2018-07-03T02:59:13.522Z,114.33
2018-07-03T03:01:45.626Z,110.10
2018-07-03T03:04:17.550Z,107.10
2018-07-03T03:06:48.734Z,101.47
2018-07-03T03:09:20.539Z,114.13
2018-07-03T03:11:52.766Z,107.53
2018-07-03T03:14:25.546Z,110.20
2018-07-03T03:16:57.567Z,102.90
2018-07-03T03:19:29.323Z,99.67
2018-07-03T03:22:01.471Z,109.00
2018-07-03T03:24:33.386Z,103.83
2018-07-03T03:27:05.618Z,107.30
2018-07-03T03:29:37.441Z,92.23
2018-07-03T03:32:09.562Z,101.73
2018-07-03T03:34:41.509Z,105.60
2018-07-03T03:37:13.629Z,100.20
2018-07-03T03:39:45.920Z,107.80
2018-07-03T03:42:18.118Z,108.87
2018-07-03T03:44:50.079Z,98.17
2018-07-03T03:47:22.239Z,85.70
2018-07-03T03:49:54.897Z,92.27
2018-07-03T03:52:27.790Z,112.20
2018-07-03T03:54:59.661Z,100.27
2018-07-03T03:57:31.770Z,97.10
2018-07-03T04:00:04.742Z,96.17
2018-07-03T04:02:36.882Z,106.53
2018-07-03T04:05:08.631Z,98.63
2018-07-03T04:07:41.154Z,107.23
2018-07-03T04:10:12.719Z,88.63
2018-07-03T04:12:45.642Z,98.90
2018-07-03T04:15:18.946Z,79.13
2018-07-03T04:17:50.797Z,80.57
2018-07-03T04:20:23.747Z,99.40
2018-07-03T04:22:56.881Z,93.53
2018-07-03T04:25:28.609Z,82.60
2018-07-03T04:28:01.372Z,98.33
2018-07-03T04:30:33.320Z,77.57
2018-07-03T04:33:06.046Z,81.20
2018-07-03T04:35:37.875Z,85.57
2018-07-03T04:38:09.863Z,79.80
2018-07-03T04:40:42.429Z,78.13
2018-07-03T04:43:14.531Z,81.53
2018-07-03T04:45:48.879Z,81.17
2018-07-03T04:48:20.935Z,80.53
2018-07-03T04:50:53.085Z,88.47
2018-07-03T04:53:25.352Z,89.00
2018-07-03T04:55:57.198Z,104.93
2018-07-03T04:58:29.271Z,110.70
2018-07-03T05:01:00.966Z,93.00
2018-07-03T05:03:33.763Z,92.73
2018-07-03T05:06:05.813Z,96.97
2018-07-03T05:08:38.450Z,98.70
2018-07-03T05:11:10.203Z,81.50
2018-07-03T05:13:42.363Z,93.90
2018-07-03T05:16:15.255Z,88.10
2018-07-03T05:18:47.219Z,74.10
2018-07-03T05:21:18.974Z,67.25
2018-07-03T05:23:51.519Z,70.78
2018-07-03T05:26:23.286Z,83.17
2018-07-03T05:28:55.590Z,80.47
2018-07-03T05:31:27.394Z,87.53
2018-07-03T05:33:59.387Z,86.80
2018-07-03T05:36:31.298Z,85.73
2018-07-03T05:39:03.677Z,71.70
2018-07-03T05:41:35.682Z,88.27
2018-07-03T05:44:08.105Z,80.73
2018-07-03T05:46:41.122Z,66.77
2018-07-03T05:49:13.955Z,72.72
2018-07-03T05:51:45.726Z,73.90
2018-07-03T05:54:17.806Z,66.00
2018-07-03T05:56:48.567Z,70.45
2018-07-03T05:59:20.590Z,67.55
2018-07-03T06:01:52.151Z,71.02
2018-07-03T06:04:24.210Z,68.97
2018-07-03T06:06:56.126Z,60.25
2018-07-03T06:09:28.403Z,64.22
2018-07-03T06:11:59.314Z,65.03
2018-07-03T06:14:31.761Z,60.73
2018-07-03T06:17:05.942Z,70.23
2018-07-03T06:19:37.733Z,66.20
2018-07-03T06:22:09.940Z,65.33
2018-07-03T06:24:42.087Z,67.33
2018-07-03T06:27:13.898Z,78.80
2018-07-03T06:29:46.446Z,55.93
2018-07-03T06:32:18.540Z,64.77
2018-07-03T06:34:50.537Z,67.80
2018-07-03T06:37:22.287Z,70.28
2018-07-03T06:39:54.918Z,59.98
2018-07-03T06:42:28.224Z,60.38
2018-07-03T06:45:00.220Z,59.03
2018-07-03T06:47:32.655Z,64.55
2018-07-03T06:50:05.857Z,58.15
2018-07-03T06:52:37.663Z,62.17
2018-07-03T06:55:09.774Z,63.48
2018-07-03T06:57:41.467Z,63.78
2018-07-03T07:00:13.375Z,61.37
2018-07-03T07:02:45.410Z,74.60
2018-07-03T07:05:17.516Z,70.83
2018-07-03T07:07:49.462Z,64.58
2018-07-03T07:10:24.579Z,69.05
2018-07-03T07:12:57.994Z,66.00
2018-07-03T07:15:31.449Z,52.55
2018-07-03T07:18:07.179Z,59.42
2018-07-03T07:20:42.516Z,53.73
2018-07-03T07:23:16.178Z,62.90
2018-07-03T07:25:51.014Z,68.53
2018-07-03T07:28:24.770Z,76.00
2018-07-03T07:30:58.426Z,57.53
2018-07-03T07:33:33.322Z,72.75
2018-07-03T07:36:07.927Z,75.28
2018-07-03T07:38:42.661Z,60.08
2018-07-03T07:41:16.856Z,63.33
2018-07-03T07:43:50.431Z,69.30
2018-07-03T07:48:58.726Z,64.67
2018-07-03T07:51:33.622Z,75.15
2018-07-03T07:54:10.043Z,71.70
2018-07-03T07:56:45.238Z,62.90
2018-07-03T07:59:20.759Z,68.03
2018-07-03T08:01:54.398Z,69.23
2018-07-03T08:04:28.214Z,59.27
2018-07-03T08:07:01.279Z,71.87
2018-07-03T08:09:35.435Z,76.43
2018-07-03T08:12:10.151Z,66.20
2018-07-03T08:14:45.073Z,69.90
2018-07-03T08:17:20.020Z,86.27
2018-07-03T08:19:55.970Z,85.10
2018-07-03T08:22:30.110Z,72.33
2018-07-03T08:25:05.501Z,72.93
2018-07-03T08:27:39.854Z,74.97
2018-07-03T08:30:14.969Z,84.00
2018-07-03T08:32:48.630Z,63.93
2018-07-03T08:35:22.872Z,58.87
2018-07-03T08:37:57.277Z,63.30
2018-07-03T08:40:34.466Z,77.87
2018-07-03T08:43:09.320Z,69.40
2018-07-03T08:45:44.866Z,68.63
2018-07-03T08:48:19.684Z,62.87
2018-07-03T08:50:53.558Z,71.40
2018-07-03T08:53:27.613Z,65.70
2018-07-03T08:56:02.385Z,68.03
2018-07-03T08:58:39.683Z,63.27
2018-07-03T09:01:13.682Z,69.20
2018-07-03T09:03:49.422Z,68.27
2018-07-03T09:06:23.735Z,71.07
2018-07-03T09:08:59.319Z,74.80
2018-07-03T09:11:33.813Z,77.00
2018-07-03T09:14:08.275Z,77.70
2018-07-03T09:16:41.779Z,80.20
2018-07-03T09:19:16.888Z,76.20
2018-07-03T09:21:53.330Z,89.17
2018-07-03T09:24:29.645Z,85.60
2018-07-03T09:27:03.211Z,81.67
2018-07-03T09:29:40.076Z,97.53
2018-07-03T09:32:15.326Z,91.60
2018-07-03T09:34:48.715Z,84.93
2018-07-03T09:37:23.326Z,90.37
2018-07-03T09:39:59.019Z,92.37
2018-07-03T09:42:32.305Z,85.67
2018-07-03T09:45:06.157Z,98.73
2018-07-03T09:47:41.902Z,97.40
2018-07-03T09:50:16.269Z,92.13
2018-07-03T09:52:52.211Z,100.97
2018-07-03T09:55:28.026Z,92.77
2018-07-03T09:58:03.196Z,95.07
2018-07-03T10:00:41.862Z,87.40
2018-07-03T10:03:16.030Z,74.40
2018-07-03T10:05:50.214Z,74.20
2018-07-03T10:08:22.413Z,76.37
2018-07-03T10:10:57.966Z,79.63
2018-07-03T10:13:32.294Z,74.33
2018-07-03T10:16:09.802Z,69.77
2018-07-03T10:18:42.934Z,77.83
2018-07-03T10:21:17.537Z,78.73
2018-07-03T10:23:51.181Z,79.73
2018-07-03T10:26:27.958Z,77.87
2018-07-03T10:29:01.672Z,100.23
2018-07-03T10:31:36.911Z,82.30
2018-07-03T10:34:15.133Z,87.20
2018-07-03T10:36:50.243Z,94.07
2018-07-03T10:39:25.244Z,89.00
2018-07-03T10:41:59.910Z,90.87
2018-07-03T10:44:34.399Z,98.90
2018-07-03T10:47:09.972Z,91.33
2018-07-03T10:49:44.207Z,85.97
2018-07-03T10:52:17.339Z,90.23
2018-07-03T10:54:50.853Z,90.17
2018-07-03T10:57:24.435Z,89.03
2018-07-03T10:59:58.714Z,104.80
2018-07-03T11:02:32.283Z,101.60
2018-07-03T11:05:11.425Z,95.87
2018-07-03T11:07:46.203Z,82.27
2018-07-03T11:10:19.955Z,88.83
2018-07-03T11:12:57.135Z,92.20
2018-07-03T11:15:31.084Z,116.03
2018-07-03T11:18:06.661Z,94.03
2018-07-03T11:20:42.874Z,84.80
2018-07-03T11:23:18.653Z,95.47
2018-07-03T11:25:57.835Z,94.43
2018-07-03T11:28:31.995Z,85.87
2018-07-03T11:31:05.727Z,92.93
2018-07-03T11:33:41.168Z,90.80
2018-07-03T11:36:14.423Z,98.17
2018-07-03T11:38:50.919Z,102.60
2018-07-03T11:41:26.559Z,87.00
2018-07-03T11:44:01.801Z,92.87
2018-07-03T11:46:36.310Z,98.83
2018-07-03T11:49:11.575Z,79.73
2018-07-03T11:51:46.875Z,89.10
2018-07-03T11:54:21.550Z,119.73
2018-07-03T11:56:56.245Z,102.70
2018-07-03T11:59:31.799Z,113.10
2018-07-03T12:02:05.403Z,93.40
2018-07-03T12:04:39.562Z,98.60
2018-07-03T12:07:12.810Z,89.17
2018-07-03T12:09:47.356Z,107.50
2018-07-03T12:12:20.476Z,100.43
2018-07-03T12:14:55.000Z,98.80
2018-07-03T12:17:28.459Z,99.67
2018-07-03T12:20:03.070Z,105.87
2018-07-03T12:22:36.789Z,94.87
2018-07-03T12:25:11.743Z,100.97
2018-07-03T12:27:47.051Z,109.00
2018-07-03T12:30:21.948Z,95.83
2018-07-03T12:32:58.365Z,95.57
2018-07-03T12:35:34.064Z,109.03
2018-07-03T12:38:09.539Z,105.23
2018-07-03T12:40:46.630Z,99.33
2018-07-03T12:43:21.009Z,111.13
2018-07-03T12:45:55.995Z,90.40
2018-07-03T12:48:31.632Z,84.67
2018-07-03T12:51:05.335Z,93.67
2018-07-03T12:53:39.393Z,98.00
2018-07-03T12:56:18.055Z,111.07
2018-07-03T12:58:55.302Z,88.67
2018-07-03T13:01:30.044Z,94.63
2018-07-03T13:04:03.727Z,112.23
2018-07-03T13:06:37.738Z,110.97
2018-07-03T13:09:14.207Z,98.57
2018-07-03T13:11:50.667Z,96.67
2018-07-03T13:14:24.842Z,87.33
2018-07-03T13:16:59.278Z,97.17
2018-07-03T13:19:30.570Z,108.77
2018-07-03T13:22:03.763Z,90.53
2018-07-03T13:24:37.395Z,117.37
2018-07-03T13:27:11.682Z,105.07
2018-07-03T13:29:47.871Z,96.70
2018-07-03T13:32:22.343Z,93.50
2018-07-03T13:34:55.717Z,97.67
2018-07-03T13:37:27.680Z,89.83
2018-07-03T13:39:59.585Z,95.23
2018-07-03T13:42:31.543Z,101.90
2018-07-03T13:45:03.259Z,105.67
2018-07-03T13:47:35.459Z,89.27
2018-07-03T13:50:07.796Z,111.00
2018-07-03T13:52:39.803Z,109.50
2018-07-03T13:55:11.594Z,94.33
2018-07-03T13:57:43.671Z,99.30
2018-07-03T14:00:15.417Z,101.23
2018-07-03T14:02:47.363Z,89.67
2018-07-03T14:05:19.265Z,94.80
2018-07-03T14:07:51.636Z,90.20
2018-07-03T14:10:23.463Z,98.13
2018-07-03T14:12:55.490Z,98.77
2018-07-03T14:15:26.983Z,99.93
2018-07-03T14:17:58.597Z,109.27
2018-07-03T14:20:30.431Z,94.53
2018-07-03T14:23:02.325Z,86.40
2018-07-03T14:25:34.219Z,94.77
2018-07-03T14:28:06.189Z,91.67
2018-07-03T14:30:38.695Z,86.73
2018-07-03T14:33:10.798Z,91.70
2018-07-03T14:35:41.815Z,77.10
2018-07-03T14:38:13.740Z,98.50
2018-07-03T14:40:45.579Z,98.70
2018-07-03T14:43:17.516Z,100.93
2018-07-03T14:45:49.096Z,88.80
2018-07-03T14:48:21.159Z,118.33
2018-07-03T14:50:52.875Z,86.10
2018-07-03T14:53:24.891Z,92.83
2018-07-03T14:55:56.710Z,90.63
2018-07-03T14:58:28.897Z,77.10
2018-07-03T15:01:00.592Z,97.67
2018-07-03T15:03:32.689Z,91.00
2018-07-03T15:06:04.366Z,80.90
2018-07-03T15:08:36.747Z,86.53
2018-07-03T15:11:08.553Z,84.93
2018-07-03T15:13:40.378Z,80.10
2018-07-03T15:16:13.507Z,97.37
2018-07-03T15:18:50.272Z,99.30
2018-07-03T15:21:21.949Z,79.33
2018-07-03T15:23:54.090Z,89.83
2018-07-03T15:26:25.920Z,88.73
2018-07-03T15:28:58.013Z,88.40
2018-07-03T15:31:31.178Z,88.50
2018-07-03T15:34:02.959Z,93.10
2018-07-03T15:36:34.806Z,95.97
2018-07-03T15:39:09.026Z,96.50
2018-07-03T15:41:41.162Z,109.00
2018-07-03T15:44:22.892Z,96.40
2018-07-03T15:46:54.438Z,91.53
2018-07-03T15:49:26.506Z,78.83
2018-07-03T15:51:58.223Z,98.17
2018-07-03T15:54:30.320Z,91.47
2018-07-03T15:57:02.226Z,90.77
2018-07-03T15:59:34.538Z,87.47
2018-07-03T16:02:06.358Z,87.47
2018-07-03T16:04:54.404Z,74.00
2018-07-03T16:07:36.320Z,82.73
2018-07-03T16:10:07.790Z,90.50
2018-07-03T16:12:38.778Z,102.60
2018-07-03T16:15:11.231Z,89.43
2018-07-03T16:17:43.122Z,90.53
2018-07-03T16:20:19.971Z,87.63
2018-07-03T16:22:58.312Z,101.40
2018-07-03T16:25:31.003Z,88.10
2018-07-03T16:28:01.886Z,91.43
2018-07-03T16:30:34.034Z,92.57
2018-07-03T16:33:11.422Z,96.90
2018-07-03T16:35:44.257Z,99.07
2018-07-03T16:38:15.070Z,75.43
2018-07-03T16:40:47.119Z,103.20
2018-07-03T16:43:19.141Z,71.87
2018-07-03T16:45:51.263Z,104.33
2018-07-03T16:48:23.250Z,93.70
2018-07-03T16:50:55.278Z,84.13
2018-07-03T16:53:26.973Z,86.03
2018-07-03T16:55:57.893Z,92.90
2018-07-03T16:58:29.812Z,99.07
2018-07-03T17:01:03.850Z,88.73
2018-07-03T17:03:36.252Z,93.90
2018-07-03T17:06:07.673Z,90.17
2018-07-03T17:08:40.975Z,91.83
2018-07-03T17:11:13.394Z,102.60
2018-07-03T17:13:46.445Z,94.40
2018-07-03T17:16:18.652Z,82.30
2018-07-03T17:18:53.956Z,73.93
2018-07-03T17:21:28.413Z,90.73
2018-07-03T17:24:00.063Z,95.57
2018-07-03T17:26:48.443Z,102.50
